Time;durP1;ratioP1;P1;durP2;ratioP2;P2;SDS_P1;SDS_P2;PMS_P1;PMS_P2;Temp;Humidity;BMP_temperature;BMP_pressure;BME280_temperature;BME280_humidity;BME280_pressure;Samples;Min_cycle;Max_cycle;Signal;HPM_P1;HPM_P2
2022/05/05 00:01:28;;;;;;;2.28;1.30;;;;;;;2.39;57.36;100265.25;5032985;28;20461;-61
2022/05/05 00:03:55;;;;;;;3.13;1.40;;;;;;;2.32;57.25;100251.41;5051079;28;20044;-57
2022/05/05 00:06:20;;;;;;;2.78;1.45;;;;;;;2.43;57.43;100274.78;5051288;28;20032;-56
2022/05/05 00:08:46;;;;;;;2.42;1.40;;;;;;;2.20;57.34;100243.97;5051164;28;20070;-58
2022/05/05 00:16:40;;;;;;;1.90;1.30;;;;;;;2.30;57.81;100277.03;5051110;28;20110;-60
2022/05/05 00:19:05;;;;;;;2.88;1.40;;;;;;;2.26;57.91;100278.94;5051349;28;20068;-56
2022/05/05 00:21:31;;;;;;;3.03;1.67;;;;;;;2.26;57.70;100284.22;5050517;28;20115;-57
2022/05/05 00:23:56;;;;;;;2.65;1.80;;;;;;;2.25;58.16;100292.22;5050704;28;20183;-58
2022/05/05 00:26:22;;;;;;;2.03;1.40;;;;;;;2.12;57.95;100276.81;5050440;28;20060;-55
2022/05/05 00:28:47;;;;;;;3.67;1.75;;;;;;;2.13;57.99;100289.09;5050565;28;20455;-58
2022/05/05 00:31:13;;;;;;;1.98;1.60;;;;;;;2.16;58.50;100301.34;5032409;28;20025;-60
2022/05/05 00:33:38;;;;;;;2.00;1.58;;;;;;;2.13;58.13;100304.97;5050545;28;20159;-60
2022/05/05 00:36:04;;;;;;;4.05;1.70;;;;;;;2.11;58.25;100303.31;5050933;28;20037;-60
2022/05/05 00:38:30;;;;;;;2.53;1.73;;;;;;;2.03;58.08;100293.03;5032849;28;20089;-59
2022/05/05 00:40:55;;;;;;;2.85;1.77;;;;;;;2.04;58.36;100305.31;5048353;28;20025;-57
2022/05/05 00:43:21;;;;;;;3.25;2.00;;;;;;;2.04;58.23;100313.25;5032465;28;20032;-56
2022/05/05 00:45:46;;;;;;;3.25;2.08;;;;;;;2.00;58.76;100309.00;5050673;28;20483;-57
2022/05/05 00:48:13;;;;;;;3.33;1.83;;;;;;;1.99;58.65;100316.03;5016548;28;20123;-58
2022/05/05 00:50:39;;;;;;;4.03;2.22;;;;;;;1.96;58.23;100318.81;5050264;28;20029;-55
2022/05/05 00:53:05;;;;;;;4.22;1.90;;;;;;;1.96;58.57;100317.97;5050759;28;20087;-57
2022/05/05 00:55:33;;;;;;;3.90;1.70;;;;;;;1.96;58.48;100318.81;5050507;28;20094;-55
2022/05/05 00:58:00;;;;;;;4.40;2.00;;;;;;;1.95;58.61;100329.44;5032390;28;20201;-55
2022/05/05 01:00:25;;;;;;;6.05;2.20;;;;;;;1.91;58.59;100319.88;5050137;28;20029;-52
2022/05/05 01:02:52;;;;;;;4.78;2.30;;;;;;;1.70;58.71;100288.09;5050349;28;20103;-58
2022/05/05 01:05:18;;;;;;;3.00;2.00;;;;;;;1.89;58.84;100322.59;5050052;28;20064;-56
2022/05/05 01:07:43;;;;;;;2.83;2.30;;;;;;;1.86;58.67;100326.19;5050227;28;20048;-57
2022/05/05 01:10:09;;;;;;;4.03;2.17;;;;;;;1.88;58.58;100336.72;5050396;28;20040;-61
2022/05/05 01:12:34;;;;;;;3.15;2.38;;;;;;;1.86;58.14;100336.75;5048847;28;20456;-58
2022/05/05 01:15:01;;;;;;;3.03;2.20;;;;;;;1.84;58.40;100341.25;5049956;28;20036;-58
2022/05/05 01:17:27;;;;;;;4.93;2.25;;;;;;;1.80;58.29;100339.63;5049926;28;20036;-59
2022/05/05 01:19:52;;;;;;;4.25;2.42;;;;;;;1.82;58.18;100347.50;5049832;28;20361;-57
2022/05/05 01:22:18;;;;;;;4.70;2.50;;;;;;;1.79;58.02;100342.31;5050273;28;20044;-60
2022/05/05 01:30:29;;;;;;;4.45;2.20;;;;;;;1.78;58.04;100352.03;4957441;28;20135;-58
2022/05/05 01:32:55;;;;;;;3.75;2.28;;;;;;;1.81;57.99;100354.56;5032629;28;20125;-58
2022/05/05 01:35:20;;;;;;;4.47;2.40;;;;;;;1.80;57.80;100360.75;5049890;28;20476;-61
2022/05/05 01:37:47;;;;;;;3.65;2.22;;;;;;;1.80;58.14;100363.38;5049947;28;20060;-59
2022/05/05 01:40:12;;;;;;;4.63;2.20;;;;;;;1.77;57.82;100360.88;5049900;28;20037;-58
2022/05/05 01:42:38;;;;;;;3.88;1.77;;;;;;;1.61;58.13;100342.06;5031983;28;20088;-58
2022/05/05 01:45:05;;;;;;;3.75;2.70;;;;;;;1.80;58.18;100381.88;5031975;28;20037;-58
2022/05/05 01:47:30;;;;;;;2.83;2.30;;;;;;;1.79;58.03;100376.63;5049647;28;20029;-59
2022/05/05 01:50:00;;;;;;;3.13;2.08;;;;;;;1.85;58.41;100379.94;5049452;28;20078;-57
2022/05/05 01:52:26;;;;;;;4.00;3.05;;;;;;;1.77;58.25;100367.91;5050367;28;20099;-61
2022/05/05 01:54:52;;;;;;;2.88;2.03;;;;;;;1.81;57.82;100380.97;5053792;28;20029;-58
2022/05/05 01:57:17;;;;;;;3.03;2.35;;;;;;;1.83;57.66;100387.03;5053021;28;20480;-55
2022/05/05 01:59:43;;;;;;;7.88;3.65;;;;;;;1.86;57.85;100391.38;5053231;28;20025;-55
2022/05/05 02:02:08;;;;;;;2.88;2.38;;;;;;;1.88;58.34;100389.53;5035696;28;20028;-62
2022/05/05 02:04:33;;;;;;;3.63;2.55;;;;;;;1.92;58.03;100391.13;5053379;28;20079;-62
2022/05/05 02:06:59;;;;;;;2.70;1.83;;;;;;;1.93;57.99;100399.91;5053233;28;20032;-61
2022/05/05 02:09:24;;;;;;;3.85;2.22;;;;;;;1.92;57.85;100396.41;5053344;28;20124;-58
2022/05/05 02:11:50;;;;;;;3.47;1.85;;;;;;;1.79;57.67;100369.59;5053401;28;20033;-58
2022/05/05 02:14:16;;;;;;;3.10;1.77;;;;;;;1.93;57.82;100392.00;5035702;28;20112;-55
2022/05/05 02:16:42;;;;;;;4.15;2.10;;;;;;;2.00;57.63;100401.44;5053414;28;20420;-57
2022/05/05 02:19:07;;;;;;;3.88;2.30;;;;;;;2.08;57.62;100402.00;5052970;28;20418;-59
2022/05/05 02:21:33;;;;;;;5.05;3.03;;;;;;;2.11;57.49;100412.47;5053349;28;20033;-57
2022/05/05 02:23:58;;;;;;;5.43;2.30;;;;;;;2.17;57.72;100415.78;5053086;28;20058;-59
2022/05/05 02:26:24;;;;;;;2.08;1.80;;;;;;;2.23;57.23;100421.72;5034887;28;20377;-59
2022/05/05 02:28:49;;;;;;;2.65;1.90;;;;;;;2.28;56.99;100426.84;5051577;28;20491;-57
2022/05/05 02:31:15;;;;;;;2.60;2.20;;;;;;;2.32;56.71;100433.75;5053224;28;20456;-56
2022/05/05 02:33:41;;;;;;;5.50;2.20;;;;;;;2.19;56.75;100408.72;5053130;28;20025;-58
2022/05/05 02:38:51;;;;;;;4.55;2.20;;;;;;;2.32;56.67;100423.16;5052867;28;20033;-53
2022/05/05 02:41:16;;;;;;;2.60;1.92;;;;;;;2.53;56.26;100439.16;5052863;28;20076;-54
2022/05/05 02:43:42;;;;;;;2.65;1.70;;;;;;;2.56;55.91;100439.03;5051958;28;20044;-57
2022/05/05 02:46:07;;;;;;;2.65;1.98;;;;;;;2.61;56.00;100442.38;5052226;28;20037;-53
2022/05/05 02:48:33;;;;;;;8.07;2.38;;;;;;;2.71;55.36;100453.47;5034627;28;20029;-60
2022/05/05 02:50:58;;;;;;;4.70;2.10;;;;;;;2.78;55.29;100462.91;5052807;28;20048;-59
2022/05/05 02:56:08;;;;;;;3.80;1.60;;;;;;;2.93;55.05;100466.75;5050951;28;20056;-55
2022/05/05 02:58:33;;;;;;;2.58;1.77;;;;;;;2.99;54.50;100466.50;5052185;28;20025;-62
2022/05/05 03:00:58;;;;;;;4.38;2.05;;;;;;;3.08;54.88;100469.69;5052172;28;20075;-56
2022/05/05 03:03:24;;;;;;;4.30;1.73;;;;;;;3.11;54.61;100456.34;5052112;28;20061;-55
2022/05/05 03:05:49;;;;;;;4.07;2.08;;;;;;;3.23;54.04;100466.47;5051204;28;20040;-56
2022/05/05 03:08:15;;;;;;;3.13;1.80;;;;;;;3.30;53.45;100467.94;5052487;28;20033;-58
2022/05/05 03:10:40;;;;;;;4.00;2.13;;;;;;;3.20;53.72;100440.13;5034572;28;20057;-57
2022/05/05 03:13:06;;;;;;;3.80;1.83;;;;;;;3.29;53.03;100442.38;5052023;28;20099;-57
2022/05/05 03:15:31;;;;;;;3.35;1.60;;;;;;;3.57;52.86;100480.13;5033867;28;20039;-56
2022/05/05 03:17:57;;;;;;;4.97;1.95;;;;;;;3.63;52.93;100487.81;5034361;28;20461;-57
2022/05/05 03:20:23;;;;;;;4.30;2.13;;;;;;;3.68;52.29;100477.03;5051777;28;20037;-58
2022/05/05 03:22:49;;;;;;;3.13;1.70;;;;;;;3.83;51.95;100480.81;5033747;28;20033;-58
2022/05/05 03:25:14;;;;;;;2.88;1.90;;;;;;;3.92;51.82;100484.88;5052249;28;20106;-58
2022/05/05 03:27:40;;;;;;;3.05;2.00;;;;;;;4.00;51.65;100490.69;5052035;28;20120;-52
2022/05/05 03:30:06;;;;;;;5.47;2.15;;;;;;;4.16;51.25;100493.56;5051637;28;20483;-54
2022/05/05 03:32:35;;;;;;;4.18;2.15;;;;;;;4.29;50.65;100499.19;5052074;28;20033;-54
2022/05/05 03:35:00;;;;;;;4.30;1.95;;;;;;;4.43;50.90;100498.56;5033872;28;20033;-57
2022/05/05 03:37:30;;;;;;;2.58;1.80;;;;;;;4.65;50.00;100497.63;5051615;28;20384;-57
2022/05/05 03:39:56;;;;;;;3.30;2.25;;;;;;;4.96;49.64;100498.88;5034079;28;20477;-58
2022/05/05 03:42:22;;;;;;;6.35;2.05;;;;;;;6.09;47.05;100501.44;5051696;28;20119;-59
2022/05/05 03:44:47;;;;;;;7.20;2.00;;;;;;;7.63;42.82;100478.97;5051757;28;20111;-62
2022/05/05 03:47:13;;;;;;;3.35;2.30;;;;;;;9.44;38.84;100501.84;5051406;28;20025;-60
2022/05/05 03:49:38;;;;;;;3.33;1.67;;;;;;;10.88;35.67;100497.47;5033246;28;20361;-59
2022/05/05 03:52:04;;;;;;;3.55;1.95;;;;;;;11.89;33.21;100508.06;5050622;28;20125;-58
2022/05/05 03:54:30;;;;;;;3.08;1.65;;;;;;;12.91;30.85;100504.78;5051174;28;20021;-59
2022/05/05 03:56:55;;;;;;;3.15;1.50;;;;;;;13.86;29.01;100503.38;5051417;28;20040;-62
2022/05/05 03:59:24;;;;;;;1.77;1.40;;;;;;;14.46;27.71;100510.91;5051493;28;20029;-61
2022/05/05 04:01:50;;;;;;;4.90;1.30;;;;;;;15.14;26.30;100519.47;5050878;28;20039;-65
2022/05/05 04:04:16;;;;;;;2.63;1.13;;;;;;;15.58;25.20;100511.94;5016846;28;20029;-60
2022/05/05 04:06:42;;;;;;;1.65;1.17;;;;;;;15.78;24.34;100520.91;5033505;28;20121;-56
2022/05/05 04:09:07;;;;;;;2.72;1.42;;;;;;;15.98;23.78;100520.09;5051140;28;20104;-54
2022/05/05 04:11:34;;;;;;;4.30;1.27;;;;;;;16.44;23.03;100523.03;5050884;28;20436;-53
2022/05/05 04:13:59;;;;;;;2.95;1.60;;;;;;;16.85;22.40;100522.78;5051008;28;20412;-51
2022/05/05 04:16:25;;;;;;;3.92;1.20;;;;;;;17.11;22.02;100508.59;5050717;28;20029;-53
2022/05/05 04:18:50;;;;;;;5.40;1.63;;;;;;;17.91;21.21;100522.38;5050879;28;20032;-57
2022/05/05 04:21:16;;;;;;;3.53;1.60;;;;;;;18.22;20.44;100529.28;5050840;28;20433;-57
2022/05/05 04:23:41;;;;;;;5.97;1.23;;;;;;;18.79;19.58;100531.50;5032889;28;20074;-55
2022/05/05 04:26:12;;;;;;;2.72;1.30;;;;;;;19.25;19.33;100533.13;5050768;28;20053;-57
2022/05/05 04:28:40;;;;;;;3.28;1.40;;;;;;;19.86;18.57;100543.84;5051167;28;20049;-56
2022/05/05 04:31:06;;;;;;;2.22;1.50;;;;;;;20.25;17.86;100525.19;5050857;28;20060;-56
2022/05/05 04:33:32;;;;;;;2.08;1.30;;;;;;;20.47;17.46;100540.81;5050863;28;20451;-51
2022/05/05 04:35:57;;;;;;;2.47;1.83;;;;;;;20.58;17.07;100547.78;5050699;28;20025;-50
2022/05/05 04:38:23;;;;;;;2.03;1.67;;;;;;;20.60;16.69;100550.34;5050834;28;20461;-54
2022/05/05 04:40:49;;;;;;;2.40;1.70;;;;;;;20.79;16.60;100552.72;5050720;28;20025;-58
2022/05/05 04:43:15;;;;;;;2.80;1.73;;;;;;;21.04;16.41;100527.28;5050304;28;20453;-55
2022/05/05 04:45:40;;;;;;;6.22;1.65;;;;;;;21.24;15.95;100554.97;5050578;28;20043;-56
2022/05/05 04:48:06;;;;;;;2.75;2.00;;;;;;;21.37;15.78;100559.88;5050432;28;20025;-57
2022/05/05 04:50:32;;;;;;;2.50;1.75;;;;;;;22.04;14.94;100552.19;5050478;28;20037;-57
2022/05/05 04:52:57;;;;;;;4.45;1.77;;;;;;;22.74;14.20;100555.69;5016324;28;20037;-56
2022/05/05 04:55:23;;;;;;;3.05;1.80;;;;;;;23.57;13.59;100554.72;5050334;28;20473;-54
2022/05/05 04:57:48;;;;;;;2.35;1.80;;;;;;;24.48;12.87;100542.41;5050585;28;20029;-57
2022/05/05 05:00:14;;;;;;;3.38;2.15;;;;;;;25.79;11.79;100555.56;5050543;28;20362;-59
2022/05/05 05:02:39;;;;;;;4.07;1.98;;;;;;;26.94;11.23;100560.13;5050277;28;20108;-56
2022/05/05 05:05:05;;;;;;;7.13;1.90;;;;;;;28.11;10.25;100563.00;5050494;28;20057;-59
2022/05/05 05:07:31;;;;;;;3.15;1.73;;;;;;;28.51;9.37;100559.97;5050290;28;20115;-55
2022/05/05 05:09:56;;;;;;;1.77;1.48;;;;;;;28.63;8.59;100562.81;5050173;28;20028;-55
2022/05/05 05:12:22;;;;;;;3.47;1.80;;;;;;;28.15;9.18;100557.91;5050766;28;20091;-53
2022/05/05 05:14:47;;;;;;;3.40;1.58;;;;;;;27.68;9.62;100569.16;5050160;28;20083;-62
2022/05/05 05:17:12;;;;;;;2.42;1.65;;;;;;;28.33;9.35;100574.50;5049864;28;20563;-55
2022/05/05 05:19:38;;;;;;;1.80;1.58;;;;;;;29.29;8.44;100550.47;5050707;28;20025;-54
2022/05/05 05:22:05;;;;;;;4.00;1.70;;;;;;;28.52;8.66;100585.56;5050005;28;20115;-57
2022/05/05 05:24:32;;;;;;;3.15;1.50;;;;;;;27.93;8.77;100578.34;5049852;28;20028;-55
2022/05/05 05:26:57;;;;;;;2.03;1.13;;;;;;;28.94;8.66;100582.28;5048729;28;20483;-56
2022/05/05 05:29:23;;;;;;;2.35;1.40;;;;;;;29.68;7.85;100566.78;5053667;28;20059;-58
2022/05/05 05:31:48;;;;;;;5.18;1.60;;;;;;;30.27;7.18;100577.19;5053605;28;20025;-56
2022/05/05 05:34:13;;;;;;;3.58;1.27;;;;;;;31.15;6.71;100593.13;5053862;28;20032;-56
2022/05/05 05:36:39;;;;;;;3.88;0.98;;;;;;;31.59;6.80;100567.78;5019593;28;20058;-57
2022/05/05 05:39:05;;;;;;;1.65;1.33;;;;;;;31.35;6.57;100599.16;5035513;28;20111;-57
2022/05/05 05:41:30;;;;;;;1.45;1.23;;;;;;;30.45;7.09;100596.47;5053499;28;20363;-54
2022/05/05 05:43:56;;;;;;;1.15;0.98;;;;;;;31.19;6.72;100602.63;5053904;28;20041;-57
2022/05/05 05:46:21;;;;;;;3.90;1.13;;;;;;;32.45;5.91;100593.78;5053978;28;20033;-59
2022/05/05 05:48:46;;;;;;;2.17;1.27;;;;;;;33.86;5.46;100600.13;5053500;28;20028;-58
2022/05/05 05:51:13;;;;;;;1.40;0.98;;;;;;;33.97;4.70;100601.97;5053420;28;20032;-58
2022/05/05 05:53:38;;;;;;;1.33;0.95;;;;;;;31.39;6.08;100580.09;5053815;28;20548;-60
2022/05/05 05:56:04;;;;;;;3.45;1.27;;;;;;;30.98;6.31;100604.91;5053769;28;20112;-59
2022/05/05 05:58:29;;;;;;;2.08;1.00;;;;;;;32.29;5.31;100600.94;5053406;28;20461;-59
2022/05/05 06:00:55;;;;;;;1.35;0.70;;;;;;;33.13;5.26;100603.97;5053873;28;20102;-61
2022/05/05 06:06:04;;;;;;;1.20;1.10;;;;;;;35.12;4.17;100603.75;5053073;28;20079;-58
2022/05/05 06:08:31;;;;;;;2.92;1.00;;;;;;;35.00;4.14;100602.03;5053294;28;20025;-60
2022/05/05 06:10:56;;;;;;;1.70;1.20;;;;;;;34.76;4.27;100594.06;5053636;28;20031;-62
2022/05/05 06:13:22;;;;;;;1.20;1.10;;;;;;;35.32;4.12;100597.44;5053781;28;20029;-60
2022/05/05 06:15:47;;;;;;;1.98;1.00;;;;;;;35.67;4.15;100609.00;5053320;28;20025;-59
2022/05/05 06:18:13;;;;;;;1.40;0.82;;;;;;;36.68;3.36;100604.97;5035336;28;20060;-60
2022/05/05 06:20:38;;;;;;;2.05;1.05;;;;;;;37.34;3.01;100606.78;5053242;28;20037;-59
2022/05/05 06:23:04;;;;;;;4.63;0.90;;;;;;;37.14;3.20;100618.03;5053425;28;20029;-59
2022/05/05 06:25:29;;;;;;;3.97;1.60;;;;;;;37.46;2.94;100597.25;5052948;28;20045;-60
2022/05/05 06:27:57;;;;;;;1.23;1.13;;;;;;;37.71;3.34;100629.00;5053322;28;20123;-60
2022/05/05 06:30:23;;;;;;;3.00;1.40;;;;;;;37.96;2.60;100616.00;5052965;28;20036;-59
2022/05/05 06:32:48;;;;;;;2.35;1.08;;;;;;;38.13;2.37;100610.88;5047238;28;20520;-60
2022/05/05 06:35:14;;;;;;;2.75;0.82;;;;;;;38.33;2.43;100618.25;5050404;28;20025;-62
2022/05/05 06:37:39;;;;;;;2.35;1.10;;;;;;;38.87;2.45;100611.94;5034422;28;20033;-56
2022/05/05 06:40:06;;;;;;;2.05;1.08;;;;;;;39.70;2.21;100616.56;5051380;28;20036;-60
2022/05/05 06:42:31;;;;;;;1.02;0.90;;;;;;;40.46;1.87;100624.16;5052796;28;20073;-63
2022/05/05 06:44:58;;;;;;;1.95;1.10;;;;;;;40.02;2.09;100615.00;5052960;28;20033;-59
2022/05/05 06:47:24;;;;;;;2.70;1.13;;;;;;;39.56;1.88;100613.69;5051972;28;20025;-60
2022/05/05 06:49:50;;;;;;;1.75;0.90;;;;;;;35.80;2.81;100619.63;5052622;28;20357;-59
2022/05/05 06:52:16;;;;;;;0.88;0.60;;;;;;;31.60;4.83;100630.34;5052460;28;20028;-61
2022/05/05 06:54:41;;;;;;;1.63;0.65;;;;;;;30.16;5.36;100631.31;5052434;28;20029;-60
2022/05/05 06:57:06;;;;;;;4.22;0.80;;;;;;;28.32;6.25;100629.81;5052700;28;20092;-61
2022/05/05 06:59:32;;;;;;;1.50;0.90;;;;;;;27.14;6.82;100635.31;5067700;28;20033;-61
2022/05/05 07:02:06;;;;;;;0.80;0.50;;;;;;;27.45;6.49;100645.63;5052282;28;20135;-61
2022/05/05 07:07:19;;;;;;;1.40;0.63;;;;;;;32.95;4.12;100628.09;5050434;28;20082;-56
2022/05/05 07:12:30;;;;;;;2.88;0.68;;;;;;;34.95;3.20;100632.53;5052297;28;20456;-60
2022/05/05 07:14:56;;;;;;;1.05;0.60;;;;;;;35.52;3.17;100618.16;5050174;28;20041;-61
2022/05/05 07:17:23;;;;;;;1.10;0.80;;;;;;;36.12;2.98;100629.75;5051081;28;20021;-61
2022/05/05 07:19:49;;;;;;;1.67;0.90;;;;;;;37.19;2.61;100634.78;5050409;28;20021;-61
2022/05/05 07:22:15;;;;;;;0.90;0.73;;;;;;;38.04;2.07;100630.22;5050228;28;20033;-57
2022/05/05 07:24:41;;;;;;;1.92;0.90;;;;;;;37.69;2.25;100628.44;5049815;28;20130;-60
2022/05/05 07:27:07;;;;;;;2.67;0.90;;;;;;;37.59;2.10;100629.34;5049583;28;20400;-61
2022/05/05 07:29:33;;;;;;;0.82;0.80;;;;;;;37.06;2.20;100623.06;5049607;28;20028;-58
2022/05/05 07:31:59;;;;;;;3.30;1.10;;;;;;;36.32;2.54;100625.31;5049978;28;20029;-60
2022/05/05 07:34:24;;;;;;;2.78;0.80;;;;;;;36.39;2.91;100625.88;5050160;28;20025;-61
2022/05/05 07:36:50;;;;;;;1.80;0.50;;;;;;;36.83;2.23;100615.28;5033445;28;20535;-58
2022/05/05 07:39:16;;;;;;;1.02;0.80;;;;;;;37.13;2.30;100644.25;5052046;28;20138;-60
2022/05/05 07:41:42;;;;;;;1.08;0.90;;;;;;;37.58;2.02;100636.88;5051517;28;20029;-59
2022/05/05 07:44:08;;;;;;;1.92;1.38;;;;;;;38.19;1.85;100620.88;5030326;28;20024;-59
2022/05/05 07:46:34;;;;;;;1.65;1.08;;;;;;;37.73;1.98;100637.94;5049029;28;20045;-60
2022/05/05 07:49:01;;;;;;;2.00;0.90;;;;;;;36.83;1.79;100640.38;5051281;28;20035;-60
2022/05/05 07:51:28;;;;;;;1.42;0.90;;;;;;;36.33;2.64;100640.94;5051301;28;20131;-62
2022/05/05 07:56:37;;;;;;;1.65;0.90;;;;;;;36.49;2.58;100631.47;5051428;28;20033;-62
2022/05/05 07:59:03;;;;;;;1.58;1.00;;;;;;;35.68;2.94;100625.44;5041277;28;20025;-59
2022/05/05 08:01:29;;;;;;;1.95;0.95;;;;;;;35.17;2.89;100634.38;5048553;28;20071;-61
2022/05/05 08:03:54;;;;;;;2.28;1.00;;;;;;;34.80;3.19;100630.50;5038899;28;20041;-61
2022/05/05 08:06:20;;;;;;;2.13;1.30;;;;;;;33.31;3.21;100628.63;5051190;28;20029;-60
2022/05/05 08:08:45;;;;;;;2.22;0.98;;;;;;;32.05;4.43;100617.69;5050464;28;20527;-61
2022/05/05 08:11:11;;;;;;;3.00;1.02;;;;;;;29.79;5.18;100633.09;5018851;28;20017;-61
2022/05/05 08:13:36;;;;;;;1.25;0.95;;;;;;;27.47;6.80;100626.13;5030630;28;20168;-61
2022/05/05 08:16:02;;;;;;;5.30;1.10;;;;;;;25.07;7.77;100638.91;5030824;28;20120;-62
2022/05/05 08:18:27;;;;;;;2.53;1.30;;;;;;;22.57;8.93;100606.00;5035609;28;20039;-58
2022/05/05 08:20:53;;;;;;;2.60;1.35;;;;;;;21.03;9.99;100648.97;5048667;28;20110;-61
2022/05/05 08:23:19;;;;;;;2.70;0.90;;;;;;;19.61;11.07;100643.44;5050150;28;20055;-56
2022/05/05 08:28:29;;;;;;;3.80;1.00;;;;;;;16.75;13.02;100617.44;5050769;28;20040;-58
2022/05/05 08:30:56;;;;;;;4.60;1.00;;;;;;;16.17;13.91;100643.50;5047480;28;20091;-56
2022/05/05 08:33:23;;;;;;;3.45;1.10;;;;;;;15.36;14.28;100604.78;5029958;28;20140;-59
2022/05/05 08:35:50;;;;;;;3.92;1.10;;;;;;;14.89;15.20;100637.59;5029887;28;20097;-60
2022/05/05 08:38:17;;;;;;;2.17;1.42;;;;;;;14.37;15.88;100643.69;5030193;28;20028;-60
2022/05/05 08:40:43;;;;;;;2.63;1.20;;;;;;;13.66;16.17;100647.69;5029933;28;20034;-61
2022/05/05 08:43:09;;;;;;;3.47;1.05;;;;;;;13.47;17.01;100645.59;5029976;28;20120;-60
2022/05/05 08:45:37;;;;;;;8.23;1.00;;;;;;;13.14;16.51;100615.88;5028928;28;20370;-55
2022/05/05 08:48:08;;;;;;;2.90;0.88;;;;;;;13.06;16.68;100640.66;5029739;28;20466;-55
2022/05/05 08:50:36;;;;;;;2.92;0.98;;;;;;;12.82;17.48;100651.47;5048820;28;20085;-51
2022/05/05 08:53:03;;;;;;;2.15;0.85;;;;;;;12.84;18.18;100637.94;5050064;28;20032;-61
2022/05/05 08:55:30;;;;;;;4.88;1.05;;;;;;;12.63;18.09;100638.59;5050218;28;20040;-55
2022/05/05 08:57:56;;;;;;;2.88;1.00;;;;;;;12.58;17.69;100640.78;5049859;28;20045;-58
2022/05/05 09:00:22;;;;;;;3.72;1.05;;;;;;;12.59;17.80;100642.50;5050148;28;20033;-52
2022/05/05 09:02:56;;;;;;;2.88;0.95;;;;;;;12.68;17.36;100651.69;5046717;28;20405;-50
2022/05/05 09:05:43;;;;;;;1.77;1.20;;;;;;;13.10;16.56;100645.78;5041616;28;20039;-56
2022/05/05 09:08:13;;;;;;;1.88;1.10;;;;;;;13.05;17.42;100646.16;5030279;28;20033;-53
2022/05/05 09:10:43;;;;;;;5.57;1.23;;;;;;;12.86;17.54;100658.31;5049951;28;20542;-55
2022/05/05 09:13:09;;;;;;;2.03;1.20;;;;;;;12.46;17.65;100643.41;5049337;28;20485;-56
2022/05/05 09:15:36;;;;;;;4.47;1.65;;;;;;;12.41;18.33;100650.09;5038520;28;20072;-59
2022/05/05 09:18:16;;;;;;;2.55;1.48;;;;;;;12.34;18.43;100639.81;5045916;28;20416;-61
2022/05/05 09:20:44;;;;;;;2.83;1.30;;;;;;;12.31;18.88;100655.34;5028604;28;20029;-59
2022/05/05 09:23:26;;;;;;;5.63;1.38;;;;;;;12.36;19.08;100653.16;5029674;28;20033;-59
2022/05/05 09:25:52;;;;;;;3.00;1.77;;;;;;;12.48;18.55;100643.31;5029881;28;20072;-59
2022/05/05 09:28:22;;;;;;;4.95;1.75;;;;;;;12.66;18.51;100658.97;5030034;28;20131;-56
2022/05/05 09:30:52;;;;;;;2.55;1.30;;;;;;;12.82;18.17;100664.06;5030110;28;20076;-61
2022/05/05 09:33:38;;;;;;;4.05;1.40;;;;;;;12.98;17.84;100667.25;5012183;28;20496;-59
2022/05/05 09:36:08;;;;;;;2.55;1.30;;;;;;;12.96;17.99;100663.84;5048559;28;20487;-64
2022/05/05 09:38:53;;;;;;;5.32;1.20;;;;;;;13.17;17.43;100663.16;5049365;28;20120;-60
2022/05/05 09:41:23;;;;;;;5.35;1.30;;;;;;;13.14;17.85;100664.25;5038220;28;20021;-55
2022/05/05 09:43:49;;;;;;;2.83;1.20;;;;;;;13.24;18.62;100663.53;5050161;28;20036;-56
2022/05/05 09:46:27;;;;;;;6.90;1.60;;;;;;;13.41;17.32;100659.50;5049705;28;20036;-57
2022/05/05 09:49:03;;;;;;;3.70;1.50;;;;;;;13.11;17.32;100660.94;5049259;28;20052;-61
2022/05/05 09:51:28;;;;;;;3.33;1.15;;;;;;;12.88;18.11;100661.75;5049749;28;20484;-62
2022/05/05 09:59:39;;;;;;;3.30;1.90;;;;;;;12.86;18.54;100665.53;5049640;28;20029;-60
2022/05/05 10:02:12;;;;;;;2.90;2.05;;;;;;;12.90;18.27;100653.56;5048375;28;20362;-58
2022/05/05 10:04:41;;;;;;;2.35;1.60;;;;;;;12.88;18.60;100660.91;5034107;28;20029;-58
2022/05/05 10:07:08;;;;;;;1.98;0.98;;;;;;;12.68;18.39;100651.69;5064817;28;20037;-58
2022/05/05 10:09:35;;;;;;;6.25;1.50;;;;;;;12.43;18.93;100653.56;5050061;28;20033;-55
2022/05/05 10:12:01;;;;;;;2.42;1.25;;;;;;;12.14;18.33;100649.38;5050061;28;20029;-52
2022/05/05 10:14:27;;;;;;;3.75;1.42;;;;;;;12.08;19.12;100643.59;5051588;28;20443;-56
2022/05/05 10:16:54;;;;;;;6.75;1.40;;;;;;;12.15;19.22;100653.78;5051525;28;20142;-59
2022/05/05 10:19:19;;;;;;;4.57;1.90;;;;;;;12.28;19.53;100639.41;5052559;28;20411;-52
2022/05/05 10:21:51;;;;;;;2.88;1.20;;;;;;;12.47;18.49;100655.88;5052988;28;20036;-55
2022/05/05 10:24:22;;;;;;;2.92;1.10;;;;;;;12.56;18.52;100665.06;5052932;28;20385;-52
2022/05/05 10:26:53;;;;;;;2.03;1.35;;;;;;;12.68;18.02;100652.53;5053121;28;20036;-55
2022/05/05 10:29:30;;;;;;;3.08;1.48;;;;;;;12.72;18.17;100653.16;5052786;28;20183;-54
2022/05/05 10:32:05;;;;;;;2.90;1.50;;;;;;;12.45;18.60;100641.69;5052869;28;20025;-58
2022/05/05 10:34:32;;;;;;;2.47;1.40;;;;;;;12.36;18.52;100650.47;5052898;28;20566;-55
2022/05/05 10:37:09;;;;;;;9.93;2.20;;;;;;;12.22;18.90;100656.00;5052838;28;20036;-52
2022/05/05 10:39:50;;;;;;;4.25;1.90;;;;;;;12.02;19.15;100652.97;5052900;28;20032;-61
2022/05/05 10:42:33;;;;;;;3.30;1.73;;;;;;;11.90;19.16;100652.88;5052576;28;20029;-62
2022/05/05 10:45:01;;;;;;;5.68;2.00;;;;;;;11.91;19.55;100648.34;5052128;28;20025;-61
2022/05/05 10:47:55;;;;;;;4.85;1.42;;;;;;;12.13;18.88;100642.31;5052716;28;20456;-60
2022/05/05 10:50:29;;;;;;;2.95;1.55;;;;;;;12.26;19.18;100641.38;5052382;28;20041;-61
2022/05/05 10:52:56;;;;;;;3.42;1.10;;;;;;;12.28;18.77;100642.09;5052654;28;20044;-59
2022/05/05 10:55:45;;;;;;;1.38;0.90;;;;;;;12.35;18.01;100630.81;5052420;28;20033;-55
2022/05/05 10:58:12;;;;;;;1.95;1.25;;;;;;;12.43;18.40;100637.44;5051864;28;20068;-55
2022/05/05 11:00:44;;;;;;;2.03;1.25;;;;;;;12.53;18.68;100632.19;5052300;28;20029;-59
2022/05/05 11:03:09;;;;;;;2.22;1.40;;;;;;;12.42;17.78;100643.75;5051583;28;20040;-56
2022/05/05 11:05:36;;;;;;;1.55;1.30;;;;;;;12.22;18.33;100634.53;5052293;28;20045;-53
2022/05/05 11:08:17;;;;;;;2.40;1.25;;;;;;;12.22;18.22;100646.13;5052168;28;20033;-54
2022/05/05 11:13:41;;;;;;;1.85;1.20;;;;;;;12.05;18.71;100639.31;5052139;28;20021;-52
2022/05/05 11:22:24;;;;;;;5.25;1.33;;;;;;;11.89;19.81;100644.91;5051885;28;20116;-55
2022/05/05 11:24:51;;;;;;;2.00;1.10;;;;;;;11.98;18.68;100636.22;5051363;28;20124;-49
2022/05/05 11:27:23;;;;;;;2.97;1.27;;;;;;;12.02;19.15;100639.53;5051383;28;20106;-51
2022/05/05 11:29:53;;;;;;;3.15;1.35;;;;;;;11.90;18.98;100630.53;5051762;28;20064;-51
2022/05/05 11:32:20;;;;;;;2.13;1.20;;;;;;;11.81;18.95;100631.22;5051856;28;20024;-54
2022/05/05 11:34:48;;;;;;;3.20;1.25;;;;;;;11.70;18.70;100629.31;5032792;28;20029;-53
2022/05/05 11:37:14;;;;;;;2.08;1.25;;;;;;;11.54;19.58;100608.97;5051534;28;20446;-56
2022/05/05 11:39:40;;;;;;;1.08;0.90;;;;;;;11.81;19.27;100632.06;5051536;28;20032;-54
2022/05/05 11:42:07;;;;;;;2.03;0.90;;;;;;;11.81;18.28;100628.53;5027765;28;20393;-55
2022/05/05 11:44:39;;;;;;;1.50;0.80;;;;;;;11.84;18.59;100631.84;5035511;28;20080;-56
2022/05/05 11:47:11;;;;;;;1.77;1.15;;;;;;;11.82;18.74;100633.81;5021414;28;20029;-56
2022/05/05 11:49:37;;;;;;;4.10;1.40;;;;;;;11.80;19.34;100633.03;5019239;28;20430;-58
2022/05/05 11:52:03;;;;;;;3.40;1.35;;;;;;;11.84;18.98;100631.84;5031306;28;20087;-59
2022/05/05 11:54:32;;;;;;;2.03;1.50;;;;;;;11.83;19.25;100630.16;5031079;28;20033;-56
2022/05/05 11:56:58;;;;;;;6.22;1.55;;;;;;;11.77;19.51;100636.81;5030787;28;20124;-57
2022/05/05 12:02:13;;;;;;;;;;;;;;;12.00;18.59;100633.41;5031406;28;20381;-62
2022/05/05 12:04:41;;;;;;;1.65;1.23;;;;;;;11.70;18.96;100626.63;5036887;28;19989;-54
2022/05/05 12:07:09;;;;;;;2.83;1.45;;;;;;;11.55;18.70;100632.13;5048920;28;20484;-59
2022/05/05 12:09:36;;;;;;;5.95;1.52;;;;;;;11.49;19.01;100629.88;5043667;28;20473;-58
2022/05/05 12:12:18;;;;;;;2.30;1.13;;;;;;;11.54;18.84;100619.69;5038620;28;20025;-55
2022/05/05 12:14:47;;;;;;;4.72;1.13;;;;;;;11.56;19.01;100616.91;5040198;28;20033;-58
2022/05/05 12:17:18;;;;;;;3.50;1.25;;;;;;;11.67;19.04;100618.81;5040778;28;20092;-58